Time;durP1;ratioP1;P1;durP2;ratioP2;P2;SDS_P1;SDS_P2;PMS_P1;PMS_P2;Temp;Humidity;BMP_temperature;BMP_pressure;BME280_temperature;BME280_humidity;BME280_pressure;Samples;Min_cycle;Max_cycle;Signal;HPM_P1;HPM_P2
2022/08/16 00:01:19;;;;;;;13.65;9.55;;;22.40;62.90;;;;;;5080964;28;20054;-65
2022/08/16 00:03:45;;;;;;;11.77;10.73;;;22.40;62.80;;;;;;5098038;28;20511;-68
2022/08/16 00:06:11;;;;;;;12.48;11.15;;;22.40;62.80;;;;;;5116771;28;20031;-68
2022/08/16 00:08:37;;;;;;;15.27;13.93;;;22.40;62.80;;;;;;5097685;28;20504;-69
2022/08/16 00:11:05;;;;;;;15.85;14.27;;;22.40;63.50;;;;;;5115812;28;20454;-65
2022/08/16 00:13:32;;;;;;;16.48;15.05;;;22.40;63.90;;;;;;5098553;28;20051;-68
2022/08/16 00:15:58;;;;;;;16.02;14.20;;;22.40;64.30;;;;;;5098635;28;20395;-68
2022/08/16 00:18:24;;;;;;;16.10;13.85;;;22.40;64.60;;;;;;5097412;28;20044;-68
2022/08/16 00:20:50;;;;;;;16.35;14.88;;;22.40;64.90;;;;;;5097596;28;20032;-68
2022/08/16 00:23:16;;;;;;;18.08;16.25;;;22.30;65.10;;;;;;5097980;28;20046;-68
2022/08/16 00:25:42;;;;;;;18.75;16.98;;;22.30;65.40;;;;;;5116328;28;20031;-69
2022/08/16 00:28:08;;;;;;;16.48;14.90;;;22.30;65.70;;;;;;5097917;28;20031;-69
2022/08/16 00:30:34;;;;;;;14.48;13.23;;;22.30;65.90;;;;;;5097918;28;20036;-69
2022/08/16 00:33:00;;;;;;;12.80;11.63;;;22.30;65.90;;;;;;5098034;28;20486;-68
2022/08/16 00:35:32;;;;;;;12.98;11.77;;;22.20;66.20;;;;;;5097497;28;20031;-69
2022/08/16 00:37:58;;;;;;;12.27;11.07;;;22.20;65.80;;;;;;5097277;28;20039;-69
2022/08/16 00:40:43;;;;;;;14.57;12.88;;;22.20;65.60;;;;;;5115539;28;20118;-65
2022/08/16 00:43:24;;;;;;;13.40;12.15;;;22.30;65.50;;;;;;5097732;28;20051;-65
2022/08/16 00:46:02;;;;;;;13.88;12.75;;;22.30;65.80;;;;;;5097657;28;20051;-65
2022/08/16 00:48:29;;;;;;;16.17;14.73;;;22.30;65.90;;;;;;5097144;28;20047;-66
2022/08/16 00:50:55;;;;;;;19.08;17.27;;;22.30;66.20;;;;;;5114613;28;20239;-66
2022/08/16 00:53:21;;;;;;;18.95;17.17;;;22.30;66.60;;;;;;5097344;28;20065;-66
2022/08/16 00:55:53;;;;;;;18.70;16.92;;;22.30;66.60;;;;;;5097416;28;20067;-66
2022/08/16 00:58:21;;;;;;;15.80;14.40;;;22.30;66.80;;;;;;5097046;28;20043;-65
2022/08/16 01:00:49;;;;;;;13.80;12.48;;;22.30;66.60;;;;;;5115089;28;20044;-66
2022/08/16 01:03:17;;;;;;;20.60;18.85;;;22.30;66.50;;;;;;5096941;28;20140;-66
2022/08/16 01:05:45;;;;;;;20.98;18.98;;;22.20;66.90;;;;;;5097313;28;20031;-66
2022/08/16 01:08:13;;;;;;;21.27;19.35;;;22.20;67.00;;;;;;5096744;28;20382;-66
2022/08/16 01:10:40;;;;;;;18.48;16.83;;;22.20;67.20;;;;;;5096304;28;20047;-66
2022/08/16 01:13:10;;;;;;;14.32;12.88;;;22.20;67.30;;;;;;5096784;28;20083;-66
2022/08/16 01:15:38;;;;;;;21.60;19.52;;;22.20;67.00;;;;;;5097061;28;20042;-66
2022/08/16 01:18:07;;;;;;;22.65;20.55;;;22.10;67.10;;;;;;5097255;28;20047;-66
2022/08/16 01:20:39;;;;;;;22.85;20.75;;;22.10;67.20;;;;;;5078157;28;20085;-66
2022/08/16 01:23:15;;;;;;;23.65;21.45;;;22.10;67.40;;;;;;5096954;28;20046;-66
2022/08/16 01:25:44;;;;;;;19.42;17.63;;;22.00;67.50;;;;;;5096949;28;20047;-65
2022/08/16 01:28:15;;;;;;;17.02;15.40;;;21.90;67.60;;;;;;5096877;28;20048;-65
2022/08/16 01:30:45;;;;;;;16.55;15.02;;;21.90;67.70;;;;;;5113873;28;20538;-65
2022/08/16 01:33:10;;;;;;;17.38;15.85;;;21.90;67.70;;;;;;5096838;28;20102;-65
2022/08/16 01:35:42;;;;;;;16.55;15.00;;;21.90;67.60;;;;;;5079805;28;20075;-65
2022/08/16 01:38:25;;;;;;;15.10;13.70;;;21.90;67.60;;;;;;5096319;28;20082;-65
2022/08/16 01:40:56;;;;;;;20.00;18.23;;;21.80;67.30;;;;;;5113626;28;20035;-65
2022/08/16 01:43:23;;;;;;;23.38;21.30;;;21.80;67.80;;;;;;5096522;28;20421;-65
2022/08/16 01:45:54;;;;;;;24.08;21.75;;;21.80;68.00;;;;;;5076259;28;20629;-65
2022/08/16 01:48:21;;;;;;;23.42;21.33;;;21.80;68.10;;;;;;5088269;28;20104;-65
2022/08/16 01:50:49;;;;;;;23.33;21.23;;;21.80;68.00;;;;;;5095571;28;20043;-65
2022/08/16 01:53:14;;;;;;;24.27;21.92;;;21.80;68.10;;;;;;5114388;28;20066;-66
2022/08/16 01:55:41;;;;;;;22.90;20.80;;;21.70;68.10;;;;;;5078924;28;20075;-65
2022/08/16 01:58:07;;;;;;;18.35;16.63;;;21.60;68.20;;;;;;5079539;28;20044;-65
2022/08/16 02:00:33;;;;;;;17.13;15.48;;;21.60;68.20;;;;;;5095304;28;20043;-66
2022/08/16 02:02:59;;;;;;;15.23;13.82;;;21.50;68.10;;;;;;5114152;28;20039;-67
2022/08/16 02:05:25;;;;;;;18.02;16.38;;;21.50;68.00;;;;;;5112514;28;20043;-66
2022/08/16 02:07:50;;;;;;;17.10;15.40;;;21.50;68.10;;;;;;5079101;28;20040;-66
2022/08/16 02:10:16;;;;;;;18.95;17.25;;;21.50;68.10;;;;;;5095321;28;20116;-66
2022/08/16 02:12:43;;;;;;;22.50;20.50;;;21.50;68.10;;;;;;5095456;28;20063;-66
2022/08/16 02:15:09;;;;;;;21.52;19.73;;;21.40;68.20;;;;;;5095627;28;20051;-66
2022/08/16 02:17:35;;;;;;;24.35;22.05;;;21.50;68.20;;;;;;5078393;28;20141;-65
2022/08/16 02:20:01;;;;;;;17.95;16.27;;;21.40;68.30;;;;;;5078255;28;20122;-65
2022/08/16 02:22:27;;;;;;;16.42;14.93;;;21.40;68.10;;;;;;5095109;28;20122;-65
2022/08/16 02:24:53;;;;;;;16.17;14.63;;;21.40;68.00;;;;;;5095243;28;20048;-65
2022/08/16 02:27:19;;;;;;;15.40;14.07;;;21.40;67.80;;;;;;5095848;28;20233;-65
2022/08/16 02:29:44;;;;;;;16.38;14.85;;;21.40;67.70;;;;;;5095568;28;20043;-66
2022/08/16 02:32:13;;;;;;;22.02;20.02;;;21.30;67.40;;;;;;5095260;28;20055;-65
2022/08/16 02:34:38;;;;;;;17.67;16.10;;;21.30;67.60;;;;;;5113113;28;20521;-65
2022/08/16 02:37:04;;;;;;;17.80;16.27;;;21.30;67.70;;;;;;5095407;28;20043;-65
2022/08/16 02:39:30;;;;;;;18.05;16.55;;;21.30;67.50;;;;;;5095223;28;20035;-68
2022/08/16 02:41:56;;;;;;;19.80;17.92;;;21.30;67.50;;;;;;5095031;28;20121;-69
2022/08/16 02:44:22;;;;;;;24.48;22.15;;;21.30;67.50;;;;;;5113324;28;20060;-68
2022/08/16 02:46:48;;;;;;;21.88;19.90;;;21.30;67.60;;;;;;5095401;28;20121;-68
2022/08/16 02:49:14;;;;;;;19.63;17.83;;;21.20;67.60;;;;;;5113163;28;20035;-69
2022/08/16 02:51:41;;;;;;;16.73;15.15;;;21.20;67.60;;;;;;5077979;28;20032;-69
2022/08/16 02:54:07;;;;;;;16.05;13.75;;;21.20;67.50;;;;;;5113279;28;20042;-69
2022/08/16 02:56:33;;;;;;;16.63;15.10;;;21.10;67.40;;;;;;5094597;28;20491;-69
2022/08/16 02:58:59;;;;;;;16.40;14.90;;;21.10;67.20;;;;;;5078211;28;20035;-69
2022/08/16 03:01:27;;;;;;;16.02;14.50;;;21.10;67.10;;;;;;5095050;28;20040;-69
2022/08/16 03:03:54;;;;;;;16.48;14.95;;;21.10;67.10;;;;;;5094951;28;20533;-69
2022/08/16 03:06:22;;;;;;;15.38;13.85;;;21.10;67.10;;;;;;5094426;28;20047;-69
2022/08/16 03:08:49;;;;;;;15.13;13.57;;;21.10;67.00;;;;;;5095243;28;20487;-69
2022/08/16 03:11:17;;;;;;;15.05;13.65;;;21.10;66.90;;;;;;5094278;28;20055;-69
2022/08/16 03:13:48;;;;;;;17.15;15.43;;;21.10;66.80;;;;;;5095131;28;20051;-69
2022/08/16 03:16:14;;;;;;;13.65;12.25;;;21.10;66.80;;;;;;5074884;28;20115;-69
2022/08/16 03:18:40;;;;;;;15.45;14.05;;;21.10;66.60;;;;;;5107990;28;20091;-69
2022/08/16 03:21:06;;;;;;;13.30;12.20;;;21.00;66.60;;;;;;5112763;28;20709;-69
2022/08/16 03:23:33;;;;;;;14.38;13.07;;;21.00;66.50;;;;;;5094822;28;20088;-69
2022/08/16 03:25:59;;;;;;;12.02;10.93;;;21.00;66.40;;;;;;5095075;28;20043;-69
2022/08/16 03:28:25;;;;;;;14.07;12.63;;;21.00;66.70;;;;;;5094931;28;20039;-69
2022/08/16 03:30:51;;;;;;;13.68;12.48;;;21.00;66.30;;;;;;5094355;28;20402;-69
2022/08/16 03:33:17;;;;;;;13.20;12.02;;;21.00;66.10;;;;;;5096457;28;20027;-69
2022/08/16 03:35:43;;;;;;;14.82;13.43;;;21.00;66.10;;;;;;5098624;28;20062;-69
2022/08/16 03:38:11;;;;;;;14.13;12.85;;;21.00;66.20;;;;;;5099089;28;20069;-69
2022/08/16 03:40:37;;;;;;;14.93;13.52;;;20.90;66.00;;;;;;5097963;28;20044;-70
2022/08/16 03:43:05;;;;;;;15.65;14.20;;;20.90;66.00;;;;;;5098579;28;20047;-70
2022/08/16 03:45:32;;;;;;;17.70;16.13;;;20.90;65.90;;;;;;5081806;28;20036;-69
2022/08/16 03:47:58;;;;;;;17.75;15.90;;;20.90;66.10;;;;;;5117240;28;20043;-69
2022/08/16 03:50:25;;;;;;;15.32;13.93;;;20.90;66.20;;;;;;5098752;28;20403;-69
2022/08/16 03:52:51;;;;;;;17.73;16.23;;;20.80;66.20;;;;;;5098405;28;20399;-69
2022/08/16 03:55:17;;;;;;;20.50;18.70;;;20.80;66.30;;;;;;5081262;28;20470;-69
2022/08/16 03:57:42;;;;;;;20.08;18.17;;;20.80;66.80;;;;;;5098392;28;20042;-69
2022/08/16 04:00:15;;;;;;;18.83;17.13;;;20.70;66.40;;;;;;5098247;28;20039;-69
2022/08/16 04:02:42;;;;;;;16.98;15.38;;;20.70;66.40;;;;;;5098245;28;20046;-68
2022/08/16 04:05:10;;;;;;;16.10;14.43;;;20.60;66.30;;;;;;5097844;28;20104;-68
2022/08/16 04:07:36;;;;;;;15.82;14.27;;;20.60;66.30;;;;;;5098413;28;20074;-68
2022/08/16 04:10:04;;;;;;;15.45;14.02;;;20.50;66.30;;;;;;5081342;28;20071;-69
2022/08/16 04:12:30;;;;;;;16.13;14.73;;;20.50;66.30;;;;;;5115682;28;20429;-70
2022/08/16 04:14:55;;;;;;;16.70;15.10;;;20.50;66.30;;;;;;5098287;28;20038;-70
2022/08/16 04:17:21;;;;;;;15.10;13.60;;;20.40;66.30;;;;;;5081060;28;20135;-68
2022/08/16 04:19:47;;;;;;;16.05;14.43;;;20.40;66.30;;;;;;5097518;28;20452;-68
2022/08/16 04:22:13;;;;;;;16.40;14.90;;;20.40;66.30;;;;;;5116180;28;20046;-66
2022/08/16 04:24:39;;;;;;;17.20;15.50;;;20.40;65.90;;;;;;5116089;28;20039;-65
2022/08/16 04:27:05;;;;;;;15.15;13.85;;;20.40;66.20;;;;;;5098129;28;20067;-65
2022/08/16 04:29:32;;;;;;;16.70;15.10;;;20.30;66.10;;;;;;5097427;28;20035;-65
2022/08/16 04:31:58;;;;;;;16.80;15.30;;;20.30;66.10;;;;;;5115838;28;20071;-65
2022/08/16 04:34:30;;;;;;;20.60;18.60;;;20.30;66.10;;;;;;5097221;28;20074;-65
2022/08/16 04:36:59;;;;;;;19.70;17.90;;;20.30;66.30;;;;;;5097641;28;20042;-65
2022/08/16 04:39:25;;;;;;;20.45;18.55;;;20.30;66.40;;;;;;5097478;28;20470;-65
2022/08/16 04:41:51;;;;;;;19.38;17.63;;;20.20;66.40;;;;;;5097661;28;20039;-67
2022/08/16 04:44:17;;;;;;;21.98;19.77;;;20.20;66.50;;;;;;5096835;28;20043;-67
2022/08/16 04:46:43;;;;;;;22.15;19.98;;;20.20;66.70;;;;;;5097584;28;20148;-68
2022/08/16 04:49:10;;;;;;;22.10;20.10;;;20.10;66.70;;;;;;5097141;28;20051;-69
2022/08/16 04:51:40;;;;;;;21.77;19.73;;;20.10;66.80;;;;;;5097430;28;20402;-68
2022/08/16 04:54:06;;;;;;;24.00;21.58;;;20.00;66.90;;;;;;5115002;28;20471;-68
2022/08/16 04:56:33;;;;;;;22.02;19.73;;;19.90;67.10;;;;;;5097509;28;20039;-68
2022/08/16 04:58:58;;;;;;;22.35;20.23;;;19.90;67.40;;;;;;5097416;28;20043;-68
2022/08/16 05:01:25;;;;;;;22.20;20.10;;;19.80;67.60;;;;;;5097088;28;20040;-68
2022/08/16 05:03:51;;;;;;;23.77;21.50;;;19.70;67.80;;;;;;5097076;28;20036;-68
2022/08/16 05:06:16;;;;;;;23.77;21.52;;;19.60;68.10;;;;;;5080279;28;20055;-68
2022/08/16 05:08:42;;;;;;;25.95;23.35;;;19.60;68.50;;;;;;5096920;28;20118;-68
2022/08/16 05:11:10;;;;;;;27.02;22.33;;;19.50;68.80;;;;;;5096588;28;20066;-68
2022/08/16 05:13:38;;;;;;;25.10;22.67;;;19.40;69.00;;;;;;5096817;28;20432;-68
2022/08/16 05:16:04;;;;;;;23.38;20.98;;;19.40;69.30;;;;;;5097148;28;20083;-68
2022/08/16 05:18:30;;;;;;;22.92;20.70;;;19.40;69.50;;;;;;5097356;28;20532;-69
2022/08/16 05:20:56;;;;;;;24.75;21.92;;;19.40;69.80;;;;;;5115033;28;20052;-69
2022/08/16 05:23:22;;;;;;;24.50;22.20;;;19.40;70.40;;;;;;5096627;28;20035;-69
2022/08/16 05:25:47;;;;;;;23.80;21.60;;;19.40;70.10;;;;;;5096966;28;20494;-68
2022/08/16 05:28:13;;;;;;;24.85;21.98;;;19.40;70.50;;;;;;5080110;28;20127;-69
2022/08/16 05:30:39;;;;;;;24.58;22.35;;;19.30;70.10;;;;;;5096473;28;20110;-69
2022/08/16 05:33:05;;;;;;;24.90;22.60;;;19.40;70.30;;;;;;5096680;28;20032;-68
2022/08/16 05:35:31;;;;;;;24.77;22.10;;;19.40;70.40;;;;;;5096622;28;20040;-68
2022/08/16 05:37:56;;;;;;;21.75;19.65;;;19.40;70.40;;;;;;5096624;28;20398;-68
2022/08/16 05:40:22;;;;;;;18.10;16.35;;;19.40;70.30;;;;;;5096340;28;20035;-68
2022/08/16 05:42:48;;;;;;;21.23;19.17;;;19.40;70.30;;;;;;5096419;28;20047;-68
2022/08/16 05:45:14;;;;;;;22.08;19.75;;;19.40;70.40;;;;;;5095998;28;20126;-64
2022/08/16 05:47:39;;;;;;;23.27;20.88;;;19.50;70.50;;;;;;5096248;28;20048;-64
2022/08/16 05:50:06;;;;;;;24.05;21.77;;;19.50;70.60;;;;;;5096127;28;20061;-64
2022/08/16 05:52:33;;;;;;;23.17;20.83;;;19.50;70.50;;;;;;5095883;28;20031;-65
2022/08/16 05:54:59;;;;;;;21.63;19.50;;;19.50;70.40;;;;;;5114154;28;20490;-65
2022/08/16 05:57:25;;;;;;;23.00;20.65;;;19.60;70.50;;;;;;5095639;28;20039;-65
2022/08/16 05:59:51;;;;;;;22.85;19.85;;;19.60;70.80;;;;;;5095874;28;20031;-65
2022/08/16 06:02:18;;;;;;;21.58;19.38;;;19.70;71.00;;;;;;5114291;28;20071;-65
2022/08/16 06:04:43;;;;;;;20.42;18.23;;;19.80;71.30;;;;;;5079293;28;20458;-65
2022/08/16 06:07:10;;;;;;;21.23;18.88;;;19.90;71.00;;;;;;5096048;28;20082;-66
2022/08/16 06:09:36;;;;;;;19.30;17.50;;;20.00;70.60;;;;;;5078326;28;20042;-66
2022/08/16 06:12:02;;;;;;;19.25;17.48;;;20.20;70.30;;;;;;5113978;28;20052;-66
2022/08/16 06:14:29;;;;;;;19.38;17.52;;;20.30;70.00;;;;;;5113041;28;20510;-65
2022/08/16 06:16:55;;;;;;;17.08;15.38;;;20.40;70.10;;;;;;5113660;28;20039;-65
2022/08/16 06:19:20;;;;;;;19.08;16.38;;;20.70;69.90;;;;;;5095719;28;20036;-66
2022/08/16 06:21:46;;;;;;;19.15;17.23;;;20.90;69.30;;;;;;5095471;28;20062;-66
2022/08/16 06:24:13;;;;;;;17.88;16.08;;;21.10;68.90;;;;;;5095421;28;20483;-66
2022/08/16 06:26:39;;;;;;;16.63;14.85;;;21.30;68.50;;;;;;5095463;28;20039;-65
2022/08/16 06:29:04;;;;;;;18.98;17.00;;;21.60;68.00;;;;;;5095730;28;20137;-66
2022/08/16 06:31:30;;;;;;;18.15;16.33;;;21.90;67.20;;;;;;5094874;28;20036;-66
2022/08/16 06:33:56;;;;;;;17.65;15.70;;;22.20;66.10;;;;;;5094778;28;20475;-66
2022/08/16 06:36:22;;;;;;;17.30;15.52;;;22.50;65.50;;;;;;5094509;28;20036;-66
2022/08/16 06:38:51;;;;;;;18.50;16.65;;;22.70;64.80;;;;;;5095359;28;20043;-67
2022/08/16 06:41:17;;;;;;;16.90;15.18;;;23.00;63.90;;;;;;5094745;28;20036;-66
2022/08/16 06:43:43;;;;;;;16.48;14.77;;;23.20;63.70;;;;;;5092942;28;20078;-65
2022/08/16 06:46:38;;;;;;;17.90;16.20;;;23.60;63.40;;;;;;5113405;28;20067;-69
2022/08/16 06:49:07;;;;;;;18.05;16.38;;;23.90;61.80;;;;;;5095074;28;20042;-68
2022/08/16 06:51:35;;;;;;;17.35;15.52;;;24.20;61.40;;;;;;5112356;28;20139;-68
2022/08/16 06:54:01;;;;;;;17.13;15.52;;;24.50;60.90;;;;;;5077998;28;20039;-65
2022/08/16 06:56:27;;;;;;;15.63;14.23;;;24.80;60.50;;;;;;5071377;28;20111;-69
2022/08/16 06:58:53;;;;;;;16.88;15.23;;;25.10;60.00;;;;;;5071983;28;20127;-66
2022/08/16 07:01:20;;;;;;;17.17;15.43;;;25.40;59.30;;;;;;5095017;28;20043;-69
2022/08/16 07:03:46;;;;;;;16.50;13.60;;;25.60;58.40;;;;;;5095110;28;20198;-66
2022/08/16 07:06:12;;;;;;;16.48;14.77;;;25.80;58.00;;;;;;5094636;28;20043;-65
2022/08/16 07:08:38;;;;;;;16.67;15.18;;;26.10;57.50;;;;;;5112884;28;20081;-67
2022/08/16 07:11:04;;;;;;;18.42;15.35;;;26.30;56.70;;;;;;5094929;28;20039;-72
2022/08/16 07:13:30;;;;;;;18.27;15.75;;;26.60;55.90;;;;;;5094664;28;20131;-67
2022/08/16 07:15:58;;;;;;;17.58;15.63;;;26.70;55.40;;;;;;5112766;28;20394;-67
2022/08/16 07:18:24;;;;;;;17.38;15.70;;;26.90;55.10;;;;;;5078522;28;20047;-71
2022/08/16 07:20:52;;;;;;;15.07;13.73;;;27.00;54.80;;;;;;5094923;28;20043;-72
2022/08/16 07:23:18;;;;;;;14.77;13.27;;;27.10;54.50;;;;;;5095277;28;20424;-72
2022/08/16 07:25:45;;;;;;;14.93;13.63;;;27.20;54.00;;;;;;5095305;28;20462;-68
2022/08/16 07:28:13;;;;;;;15.80;14.40;;;27.30;53.70;;;;;;5095293;28;20071;-68
2022/08/16 07:30:39;;;;;;;14.57;13.27;;;27.50;53.00;;;;;;5077144;28;20077;-67
2022/08/16 07:33:05;;;;;;;15.02;13.75;;;27.60;53.00;;;;;;5094515;28;20044;-72
2022/08/16 07:35:32;;;;;;;13.70;12.55;;;27.70;52.70;;;;;;5093418;28;20485;-72
2022/08/16 07:37:58;;;;;;;13.85;12.55;;;27.90;52.40;;;;;;5077858;28;20096;-72
2022/08/16 07:40:24;;;;;;;13.30;12.07;;;27.90;51.90;;;;;;5094648;28;20039;-72
2022/08/16 07:42:51;;;;;;;14.60;13.30;;;28.00;51.50;;;;;;5094613;28;20047;-67
2022/08/16 07:45:17;;;;;;;13.80;12.50;;;28.00;51.10;;;;;;5094944;28;20364;-67
2022/08/16 07:47:43;;;;;;;14.82;13.45;;;28.10;51.40;;;;;;5094576;28;20518;-71
2022/08/16 07:50:11;;;;;;;13.75;12.35;;;28.20;50.90;;;;;;5094300;28;20538;-71
2022/08/16 07:52:37;;;;;;;14.02;12.57;;;28.30;50.40;;;;;;5095157;28;20036;-68
2022/08/16 07:55:03;;;;;;;13.73;12.52;;;28.30;50.10;;;;;;5094666;28;20100;-68
2022/08/16 07:57:29;;;;;;;15.48;11.98;;;28.40;49.60;;;;;;5076774;28;20038;-68
2022/08/16 07:59:54;;;;;;;12.95;11.70;;;28.40;49.50;;;;;;5077604;28;20040;-68
2022/08/16 08:02:20;;;;;;;12.88;11.57;;;28.50;48.80;;;;;;5094367;28;20076;-70
2022/08/16 08:04:46;;;;;;;13.32;12.02;;;28.50;48.40;;;;;;5094152;28;20043;-72
2022/08/16 08:07:12;;;;;;;13.90;12.50;;;28.60;48.20;;;;;;5077204;28;20044;-72
2022/08/16 08:09:38;;;;;;;14.13;12.70;;;28.60;48.00;;;;;;5094078;28;20039;-72
2022/08/16 08:12:05;;;;;;;12.60;11.30;;;28.60;48.20;;;;;;5093924;28;20054;-68
2022/08/16 08:14:31;;;;;;;13.95;12.68;;;28.70;48.30;;;;;;5093747;28;20111;-68
2022/08/16 08:16:57;;;;;;;14.23;12.82;;;28.70;47.60;;;;;;5074804;28;20046;-68
2022/08/16 08:19:24;;;;;;;14.75;13.35;;;28.70;47.90;;;;;;5094956;28;20049;-68
2022/08/16 08:21:53;;;;;;;13.00;11.80;;;28.70;47.40;;;;;;5097813;28;20407;-68
2022/08/16 08:24:21;;;;;;;13.82;12.52;;;28.80;47.80;;;;;;5098092;28;20055;-66
2022/08/16 08:26:47;;;;;;;12.70;11.60;;;28.80;47.70;;;;;;5098041;28;20066;-67
2022/08/16 08:29:12;;;;;;;14.23;12.73;;;28.80;47.60;;;;;;5080756;28;20135;-68
2022/08/16 08:31:41;;;;;;;12.82;11.52;;;28.90;47.70;;;;;;5097686;28;20079;-68
2022/08/16 08:34:07;;;;;;;14.20;12.80;;;28.90;47.30;;;;;;5097556;28;20088;-67
2022/08/16 08:36:35;;;;;;;13.50;12.20;;;29.00;47.10;;;;;;5097807;28;20363;-67
2022/08/16 08:39:03;;;;;;;15.15;13.10;;;29.10;47.10;;;;;;5105110;28;20391;-72
2022/08/16 08:41:29;;;;;;;13.25;12.05;;;29.10;46.90;;;;;;5097936;28;20487;-73
2022/08/16 08:43:56;;;;;;;14.52;13.13;;;29.20;46.70;;;;;;5097602;28;20044;-72
2022/08/16 08:46:22;;;;;;;13.82;12.25;;;29.20;46.40;;;;;;5097552;28;20430;-72
2022/08/16 08:48:50;;;;;;;13.25;11.95;;;29.20;46.10;;;;;;5096818;28;20122;-73
2022/08/16 08:51:17;;;;;;;12.50;11.20;;;29.30;45.80;;;;;;5097105;28;20104;-73
2022/08/16 08:53:44;;;;;;;13.85;12.48;;;29.30;45.50;;;;;;5097204;28;20031;-71
2022/08/16 08:56:10;;;;;;;11.90;10.73;;;29.40;45.80;;;;;;5097257;28;20039;-73
2022/08/16 08:58:36;;;;;;;16.42;14.82;;;29.40;45.70;;;;;;5097354;28;20044;-72
2022/08/16 09:01:04;;;;;;;12.77;11.57;;;29.50;45.30;;;;;;5080442;28;20139;-72
2022/08/16 09:03:29;;;;;;;14.65;13.27;;;29.60;45.40;;;;;;5096571;28;20082;-68
2022/08/16 09:05:55;;;;;;;13.55;12.15;;;29.70;45.60;;;;;;5097033;28;20075;-71
2022/08/16 09:08:21;;;;;;;14.30;12.82;;;29.70;45.50;;;;;;5096548;28;20487;-72
2022/08/16 09:10:47;;;;;;;11.65;10.15;;;29.80;45.40;;;;;;5079713;28;20043;-72
2022/08/16 09:13:13;;;;;;;12.35;11.20;;;29.90;45.70;;;;;;5096786;28;20507;-73
2022/08/16 09:15:39;;;;;;;13.10;11.80;;;30.00;45.20;;;;;;5096836;28;20039;-72
2022/08/16 09:18:05;;;;;;;12.00;10.43;;;30.00;44.50;;;;;;5097243;28;20046;-72
2022/08/16 09:20:31;;;;;;;11.95;10.85;;;30.10;44.50;;;;;;5096367;28;20080;-72
2022/08/16 09:22:58;;;;;;;11.95;10.75;;;30.20;44.40;;;;;;5077102;28;20874;-72
2022/08/16 09:25:25;;;;;;;12.07;10.93;;;30.20;44.00;;;;;;5096576;28;20040;-73
2022/08/16 09:27:51;;;;;;;13.35;11.85;;;30.30;43.80;;;;;;5080272;28;20043;-74
2022/08/16 09:30:16;;;;;;;14.57;13.07;;;30.30;44.10;;;;;;5096573;28;20052;-69
2022/08/16 09:32:42;;;;;;;14.25;12.80;;;30.30;44.30;;;;;;5083707;28;20464;-68
2022/08/16 09:35:08;;;;;;;14.15;11.90;;;30.40;44.30;;;;;;5096465;28;20043;-72
2022/08/16 09:37:34;;;;;;;12.15;11.02;;;30.40;44.10;;;;;;5096836;28;20390;-72
2022/08/16 09:40:00;;;;;;;11.45;10.05;;;30.40;43.90;;;;;;5115131;28;20386;-72
2022/08/16 09:42:28;;;;;;;11.88;10.30;;;30.40;43.90;;;;;;5114313;28;20031;-72
2022/08/16 09:44:53;;;;;;;9.40;8.15;;;30.40;44.30;;;;;;5100632;28;20039;-67
2022/08/16 09:47:19;;;;;;;10.45;9.30;;;30.40;43.40;;;;;;5096021;28;20451;-68
2022/08/16 09:49:45;;;;;;;13.50;9.02;;;30.40;43.40;;;;;;5095463;28;20035;-70
2022/08/16 09:52:10;;;;;;;9.82;8.68;;;30.50;43.30;;;;;;5079062;28;20144;-69
2022/08/16 09:54:39;;;;;;;11.15;10.00;;;30.50;42.80;;;;;;5094830;28;20475;-70
2022/08/16 09:57:06;;;;;;;11.20;10.05;;;30.50;42.80;;;;;;5095964;28;20079;-65
2022/08/16 09:59:32;;;;;;;12.13;10.38;;;30.60;42.50;;;;;;5096070;28;20050;-65
2022/08/16 10:01:59;;;;;;;10.27;9.27;;;30.60;42.40;;;;;;5096124;28;20044;-66
2022/08/16 10:04:25;;;;;;;10.27;9.30;;;30.70;43.10;;;;;;5095391;28;20054;-66
2022/08/16 10:06:55;;;;;;;9.20;7.82;;;30.70;42.90;;;;;;5114028;28;20047;-68
2022/08/16 10:09:22;;;;;;;12.18;10.35;;;30.80;42.80;;;;;;5096031;28;20100;-70
2022/08/16 10:14:32;;;;;;;9.75;8.73;;;30.90;42.30;;;;;;5095450;28;20092;-65
2022/08/16 10:17:00;;;;;;;9.27;8.38;;;31.00;42.70;;;;;;5095646;28;20122;-65
2022/08/16 10:19:27;;;;;;;9.70;8.23;;;31.00;42.60;;;;;;5078823;28;20040;-69
2022/08/16 10:21:54;;;;;;;10.95;9.88;;;31.20;42.60;;;;;;5095706;28;20112;-70
2022/08/16 10:24:20;;;;;;;11.82;10.65;;;31.20;42.50;;;;;;5078851;28;20043;-70
2022/08/16 10:26:46;;;;;;;9.77;8.73;;;31.20;41.90;;;;;;5095491;28;20185;-70
2022/08/16 10:29:13;;;;;;;10.13;9.20;;;31.30;42.00;;;;;;5095927;28;20122;-69
2022/08/16 10:31:39;;;;;;;10.15;8.32;;;31.40;41.90;;;;;;5113787;28;20048;-70
2022/08/16 10:34:05;;;;;;;9.00;8.20;;;31.40;42.00;;;;;;5078566;28;20040;-69
2022/08/16 10:36:31;;;;;;;10.13;8.35;;;31.40;42.00;;;;;;5095230;28;20039;-68
2022/08/16 10:38:56;;;;;;;10.73;9.63;;;31.50;42.00;;;;;;5095861;28;20096;-70
2022/08/16 10:41:22;;;;;;;11.32;9.73;;;31.50;41.00;;;;;;5078168;28;20071;-65
2022/08/16 10:43:48;;;;;;;10.27;7.20;;;31.50;40.90;;;;;;5078847;28;20513;-65
2022/08/16 10:46:15;;;;;;;8.88;7.78;;;31.50;41.40;;;;;;5113312;28;20040;-66
2022/08/16 10:48:42;;;;;;;9.80;8.80;;;31.50;41.30;;;;;;5095406;28;20043;-66
2022/08/16 10:51:09;;;;;;;9.57;8.65;;;31.60;41.20;;;;;;5095122;28;20035;-66
2022/08/16 10:53:35;;;;;;;8.25;7.47;;;31.60;40.80;;;;;;5095343;28;20114;-69
2022/08/16 10:56:04;;;;;;;9.15;8.20;;;31.60;41.20;;;;;;5094887;28;20126;-68
2022/08/16 10:58:30;;;;;;;8.55;7.65;;;31.70;41.30;;;;;;5095045;28;20042;-70
2022/08/16 11:00:55;;;;;;;9.25;7.93;;;31.60;41.10;;;;;;5095190;28;20043;-69
2022/08/16 11:03:21;;;;;;;9.15;7.55;;;31.70;40.80;;;;;;5113440;28;20092;-69
2022/08/16 11:05:47;;;;;;;6.68;6.05;;;31.70;40.50;;;;;;5078148;28;20047;-70
2022/08/16 11:08:13;;;;;;;7.53;6.82;;;31.70;40.90;;;;;;5094638;28;20039;-69
2022/08/16 11:10:44;;;;;;;6.50;5.90;;;31.70;40.90;;;;;;5095141;28;20039;-68
2022/08/16 11:13:16;;;;;;;8.00;5.75;;;31.80;41.00;;;;;;5094599;28;20518;-68
2022/08/16 11:15:43;;;;;;;6.25;5.63;;;31.70;41.00;;;;;;5094906;28;20070;-70
2022/08/16 11:18:10;;;;;;;6.60;6.03;;;31.80;40.70;;;;;;5095220;28;20067;-65
2022/08/16 11:20:37;;;;;;;5.60;5.00;;;31.80;40.30;;;;;;5095349;28;20443;-65
2022/08/16 11:23:03;;;;;;;5.68;5.07;;;31.80;40.30;;;;;;5094954;28;20036;-65
2022/08/16 11:25:30;;;;;;;7.05;6.10;;;31.80;40.10;;;;;;5112869;28;20089;-65
2022/08/16 11:27:59;;;;;;;7.85;6.40;;;31.80;40.20;;;;;;5094840;28;20100;-65
2022/08/16 11:30:26;;;;;;;7.80;6.60;;;31.90;40.60;;;;;;5094884;28;20071;-66
2022/08/16 11:32:52;;;;;;;8.32;7.03;;;31.90;40.40;;;;;;5094727;28;20047;-65
2022/08/16 11:35:25;;;;;;;6.22;5.63;;;31.90;40.10;;;;;;5094452;28;20043;-65
2022/08/16 11:37:56;;;;;;;8.75;7.03;;;31.90;40.30;;;;;;5074536;28;20032;-65
2022/08/16 11:40:27;;;;;;;7.80;6.10;;;31.90;40.30;;;;;;5085021;28;20559;-66
2022/08/16 11:42:53;;;;;;;11.10;8.00;;;31.90;40.80;;;;;;5112839;28;20450;-67
2022/08/16 11:45:19;;;;;;;8.13;6.82;;;31.90;40.60;;;;;;5112716;28;20082;-65
2022/08/16 11:47:45;;;;;;;9.07;7.03;;;32.00;40.80;;;;;;5094558;28;20067;-65
2022/08/16 11:50:11;;;;;;;8.05;6.28;;;32.00;40.80;;;;;;5094642;28;20075;-65
2022/08/16 11:52:38;;;;;;;7.28;6.18;;;32.00;40.90;;;;;;5094303;28;20089;-64
2022/08/16 11:55:06;;;;;;;6.47;5.88;;;32.00;40.90;;;;;;5097242;28;20035;-64
2022/08/16 11:57:33;;;;;;;7.43;6.70;;;32.00;40.80;;;;;;5097902;28;20506;-65
2022/08/16 11:59:59;;;;;;;7.97;5.93;;;32.10;40.90;;;;;;5116238;28;20111;-68
2022/08/16 12:02:25;;;;;;;7.47;5.53;;;32.10;40.60;;;;;;5116733;28;20066;-65
2022/08/16 12:04:51;;;;;;;6.40;5.80;;;32.10;41.20;;;;;;5116632;28;20498;-69
2022/08/16 12:07:17;;;;;;;8.30;6.35;;;32.10;40.60;;;;;;5108440;28;20058;-70
2022/08/16 12:09:43;;;;;;;6.03;5.30;;;32.20;40.20;;;;;;5097903;28;20419;-70
2022/08/16 12:12:09;;;;;;;8.18;6.25;;;32.20;40.20;;;;;;5104750;28;20140;-69
2022/08/16 12:14:35;;;;;;;5.53;4.85;;;32.20;40.20;;;;;;5115378;28;20487;-64
2022/08/16 12:17:02;;;;;;;5.85;5.25;;;32.20;40.10;;;;;;5086341;28;20044;-69
2022/08/16 12:19:29;;;;;;;6.88;5.72;;;32.10;40.00;;;;;;5098105;28;20036;-69
2022/08/16 12:21:54;;;;;;;6.43;5.70;;;32.10;39.70;;;;;;5080404;28;20380;-69
2022/08/16 12:24:21;;;;;;;7.78;5.68;;;32.10;40.00;;;;;;5096509;28;20039;-69
2022/08/16 12:26:47;;;;;;;7.25;4.82;;;32.20;40.50;;;;;;5097866;28;20425;-64
2022/08/16 12:29:13;;;;;;;6.28;4.72;;;32.20;40.50;;;;;;5098004;28;20039;-65
2022/08/16 12:31:40;;;;;;;5.53;4.47;;;32.20;40.30;;;;;;5097986;28;20043;-65